Merksplas, Belgium
Current Conditions -  °F | °C
As of 3:25 PM on Thursday 27 Nov 2014 (Local Time) from EHGR Reporting Station
Drizzle Drizzle  
Wind Chill: 45°   Ceiling: 5400
Heat Index: 48°   Visibility: 4mi
Dew Point: 46°   Wind: 8mph
Humidity: 93%   Direction: 110°ESE
Pressure: 29.68"   Gusts: NA
Location:  51.36°N, 4.87°E
Report Text: EHGR 271425Z AUTO 11007KT 6000 DZ BKN054 BKN059 OVC066 09/08 Q1005 WHT 13006KT 9999 BKN045 TEMPO 4000 -RA BKN012
Loading
Personal Weather Stations






























Interactive Weather Map New forecast layout! Learn more

10-Day Weather Forecast

Advertisements
Track Severe Weather on mobile